Terminal Aerodrome Forecast
Issued by NWS Sterling, VA

Current Version | Previous Version | Text Only | Print | Product List | Glossary Off
Versions: 1 2 3 4 5 6 7 8 9 10 11 12 13 14 15 16 17 18 19 20 21 22 23 24

000
FTUS41 KLWX 192337
TAFMRB
TAF
KMRB 192337Z 2000/2024 29009KT P6SM FEW060 FEW250
     FM201600 32010G20KT P6SM SCT040
     FM202300 32005KT P6SM FEW040 SCT140=

USA.gov is the U.S. government's official web portal to all federal, state and local government web resources and services.